createdAt,value
2018-05-06T00:00:47.151Z,992.96
2018-05-06T00:01:47.339Z,992.94
2018-05-06T00:02:47.550Z,992.98
2018-05-06T00:03:47.750Z,992.95
2018-05-06T00:04:47.933Z,992.88
2018-05-06T00:05:48.122Z,992.89
2018-05-06T00:06:48.332Z,992.92
2018-05-06T00:07:48.534Z,992.97
2018-05-06T00:08:48.719Z,992.91
2018-05-06T00:09:48.904Z,992.98
2018-05-06T00:10:49.112Z,992.99
2018-05-06T00:13:21.217Z,993.00
2018-05-06T00:14:21.379Z,993.02
2018-05-06T00:15:21.598Z,993.00
2018-05-06T00:16:21.764Z,993.05
2018-05-06T00:17:21.969Z,993.06
2018-05-06T00:18:22.179Z,993.00
2018-05-06T00:19:22.465Z,993.01
2018-05-06T00:20:22.547Z,992.98
2018-05-06T00:21:22.752Z,992.99
2018-05-06T00:22:22.931Z,993.00
2018-05-06T00:23:23.137Z,993.00
2018-05-06T00:24:23.317Z,992.98
2018-05-06T00:25:23.502Z,992.97
2018-05-06T00:26:23.700Z,992.99
2018-05-06T00:27:23.893Z,992.99
2018-05-06T00:28:24.085Z,992.95
2018-05-06T00:29:24.271Z,992.94
2018-05-06T00:30:24.468Z,992.91
2018-05-06T00:31:24.679Z,992.94
2018-05-06T00:32:24.860Z,992.93
2018-05-06T00:33:25.060Z,992.95
2018-05-06T00:34:25.247Z,992.94
2018-05-06T00:35:25.445Z,992.92
2018-05-06T00:36:25.643Z,992.94
2018-05-06T00:37:25.849Z,992.93
2018-05-06T00:38:26.053Z,992.91
2018-05-06T00:39:26.272Z,992.94
2018-05-06T00:40:26.466Z,992.91
2018-05-06T00:41:26.652Z,992.89
2018-05-06T00:42:26.848Z,992.91
2018-05-06T00:43:27.054Z,992.88
2018-05-06T00:44:27.241Z,992.90
2018-05-06T00:45:27.431Z,992.89
2018-05-06T00:46:27.697Z,992.88
2018-05-06T00:47:27.808Z,992.93
2018-05-06T00:48:27.995Z,992.93
2018-05-06T00:49:28.180Z,992.94
2018-05-06T00:50:28.392Z,992.93
2018-05-06T00:51:28.601Z,992.95
2018-05-06T00:52:28.804Z,992.95
2018-05-06T00:53:28.988Z,992.93
2018-05-06T00:54:29.173Z,992.98
2018-05-06T00:55:29.370Z,992.99
2018-05-06T00:56:29.580Z,992.97
2018-05-06T00:57:29.783Z,992.96
2018-05-06T01:00:01.598Z,992.99
2018-05-06T01:01:01.769Z,993.00
2018-05-06T01:02:01.950Z,992.96
2018-05-06T01:03:02.174Z,992.99
2018-05-06T01:04:02.368Z,992.96
2018-05-06T01:05:02.572Z,993.04
2018-05-06T01:06:02.784Z,993.02
2018-05-06T01:07:02.985Z,993.02
2018-05-06T01:08:03.191Z,993.02
2018-05-06T01:10:35.289Z,993.02
2018-05-06T01:11:35.460Z,993.01
2018-05-06T01:12:35.656Z,993.02
2018-05-06T01:15:07.838Z,993.04
2018-05-06T01:16:08.009Z,993.06
2018-05-06T01:17:08.195Z,993.06
2018-05-06T01:18:08.393Z,993.10
2018-05-06T01:19:08.603Z,993.10
2018-05-06T01:20:08.809Z,993.12
2018-05-06T01:21:08.989Z,993.12
2018-05-06T01:22:09.199Z,993.09
2018-05-06T01:23:09.403Z,993.10
2018-05-06T01:24:09.608Z,993.09
2018-05-06T01:25:09.819Z,993.08
2018-05-06T01:26:10.029Z,993.10
2018-05-06T01:27:10.224Z,993.10
2018-05-06T01:28:10.418Z,993.06
2018-05-06T01:29:10.620Z,993.07
2018-05-06T01:30:10.819Z,993.07
2018-05-06T01:31:11.017Z,993.04
2018-05-06T01:32:11.203Z,993.07
2018-05-06T01:34:46.040Z,993.08
2018-05-06T01:35:43.456Z,993.10
2018-05-06T01:36:43.672Z,993.06
2018-05-06T01:37:43.849Z,993.03
2018-05-06T01:38:44.065Z,993.01
2018-05-06T01:39:44.253Z,993.02
2018-05-06T01:40:44.440Z,993.03
2018-05-06T01:41:44.617Z,992.99
2018-05-06T01:42:44.805Z,993.00
2018-05-06T01:43:45.012Z,993.02
2018-05-06T01:44:45.201Z,993.00
2018-05-06T01:45:45.390Z,993.01
2018-05-06T01:46:45.571Z,992.99
2018-05-06T01:47:45.769Z,993.01
2018-05-06T01:48:45.967Z,993.00
2018-05-06T01:49:46.149Z,992.99
2018-05-06T01:50:46.346Z,992.99
2018-05-06T01:51:46.549Z,992.97
2018-05-06T01:52:46.754Z,992.96
2018-05-06T01:53:46.951Z,992.99
2018-05-06T01:54:47.139Z,992.96
2018-05-06T01:55:47.345Z,993.02
2018-05-06T01:56:47.527Z,993.02
2018-05-06T01:57:47.731Z,993.04
2018-05-06T01:58:47.911Z,993.03
2018-05-06T01:59:48.123Z,993.01
2018-05-06T02:00:48.307Z,993.05
2018-05-06T02:01:48.502Z,993.03
2018-05-06T02:02:48.680Z,993.02
2018-05-06T02:03:48.873Z,993.02
2018-05-06T02:04:49.081Z,993.01
2018-05-06T02:05:49.294Z,993.04
2018-05-06T02:06:49.499Z,993.00
2018-05-06T02:07:49.685Z,993.01
2018-05-06T02:08:49.883Z,993.00
2018-05-06T02:09:50.060Z,993.03
2018-05-06T02:10:50.267Z,992.99
2018-05-06T02:11:50.480Z,992.99
2018-05-06T02:12:50.679Z,992.99
2018-05-06T02:13:50.860Z,993.02
2018-05-06T02:14:51.070Z,993.02
2018-05-06T02:15:51.256Z,993.02
2018-05-06T02:16:51.459Z,993.05
2018-05-06T02:17:51.637Z,993.02
2018-05-06T02:18:51.820Z,993.01
2018-05-06T02:19:52.011Z,993.03
2018-05-06T02:20:52.221Z,993.05
2018-05-06T02:21:52.511Z,993.03
2018-05-06T02:22:52.576Z,993.03
2018-05-06T02:23:52.773Z,993.00
2018-05-06T02:24:52.954Z,993.00
2018-05-06T02:25:53.157Z,992.98
2018-05-06T02:26:53.341Z,993.02
2018-05-06T02:27:53.532Z,993.02
2018-05-06T02:28:53.731Z,993.01
2018-05-06T02:29:53.939Z,992.97
2018-05-06T02:30:54.124Z,993.01
2018-05-06T02:31:54.325Z,992.99
2018-05-06T02:32:54.531Z,992.94
2018-05-06T02:33:54.717Z,992.98
2018-05-06T02:34:54.900Z,992.96
2018-05-06T02:35:55.109Z,992.99
2018-05-06T02:36:55.310Z,992.98
2018-05-06T02:37:55.496Z,992.96
2018-05-06T02:38:55.670Z,992.97
2018-05-06T02:39:55.862Z,992.97
2018-05-06T02:40:56.046Z,992.97
2018-05-06T02:41:56.240Z,993.01
2018-05-06T02:42:56.422Z,992.97
2018-05-06T02:43:56.617Z,992.98
2018-05-06T02:44:56.804Z,992.98
2018-05-06T02:45:56.998Z,993.00
2018-05-06T02:46:57.198Z,993.00
2018-05-06T02:47:57.395Z,993.02
2018-05-06T02:48:57.591Z,993.04
2018-05-06T02:49:57.797Z,993.01
2018-05-06T02:50:57.981Z,993.00
2018-05-06T02:51:58.177Z,993.02
2018-05-06T02:52:58.359Z,993.03
2018-05-06T02:53:58.565Z,993.00
2018-05-06T02:56:32.402Z,993.05
2018-05-06T02:57:30.819Z,993.05
2018-05-06T02:58:31.007Z,993.07
2018-05-06T02:59:31.205Z,993.05
2018-05-06T03:00:31.389Z,993.07
2018-05-06T03:01:31.572Z,993.10
2018-05-06T03:02:31.750Z,993.02
2018-05-06T03:03:31.937Z,993.05
2018-05-06T03:04:32.143Z,993.04
2018-05-06T03:05:32.330Z,993.04
2018-05-06T03:06:32.506Z,993.03
2018-05-06T03:07:32.714Z,993.05
2018-05-06T03:08:32.910Z,993.04
2018-05-06T03:09:33.096Z,993.03
2018-05-06T03:10:33.283Z,993.00
2018-05-06T03:11:33.488Z,993.05
2018-05-06T03:12:33.696Z,993.02
2018-05-06T03:13:33.900Z,993.05
2018-05-06T03:14:34.090Z,993.04
2018-05-06T03:15:34.277Z,993.00
2018-05-06T03:16:34.478Z,993.04
2018-05-06T03:17:34.656Z,993.06
2018-05-06T03:18:34.842Z,993.03
2018-05-06T03:19:35.026Z,993.08
2018-05-06T03:20:35.227Z,993.08
2018-05-06T03:21:35.412Z,993.10
2018-05-06T03:22:35.591Z,993.09
2018-05-06T03:23:35.790Z,993.06
2018-05-06T03:24:35.970Z,993.08
2018-05-06T03:25:36.172Z,993.07
2018-05-06T03:26:36.383Z,993.08
2018-05-06T03:27:36.600Z,993.10
2018-05-06T03:28:36.784Z,993.10
2018-05-06T03:31:08.863Z,993.14
2018-05-06T03:32:09.031Z,993.16
2018-05-06T03:33:09.213Z,993.12
2018-05-06T03:34:09.411Z,993.12
2018-05-06T03:35:09.590Z,993.13
2018-05-06T03:36:09.778Z,993.09
2018-05-06T03:37:09.975Z,993.14
2018-05-06T03:38:10.155Z,993.16
2018-05-06T03:39:10.344Z,993.15
2018-05-06T03:40:10.631Z,993.16
2018-05-06T03:41:10.717Z,993.13
2018-05-06T03:42:10.921Z,993.14
2018-05-06T03:43:11.114Z,993.14
2018-05-06T03:44:11.297Z,993.12
2018-05-06T03:45:11.502Z,993.15
2018-05-06T03:46:11.686Z,993.13
2018-05-06T03:47:11.879Z,993.11
2018-05-06T03:48:12.097Z,993.13
2018-05-06T03:49:12.300Z,993.11
2018-05-06T03:50:12.491Z,993.09
2018-05-06T03:51:12.692Z,993.16
2018-05-06T03:52:12.896Z,993.13
2018-05-06T03:53:13.103Z,993.13
2018-05-06T03:54:13.291Z,993.11
2018-05-06T03:55:13.506Z,993.16
2018-05-06T03:57:45.584Z,993.09
2018-05-06T03:58:45.752Z,993.12
2018-05-06T03:59:45.936Z,993.09
2018-05-06T04:00:46.146Z,993.08
2018-05-06T04:01:46.336Z,993.06
2018-05-06T04:04:19.718Z,993.05
2018-05-06T04:05:18.642Z,993.07
2018-05-06T04:06:18.873Z,993.12
2018-05-06T04:07:19.091Z,993.08
2018-05-06T04:08:19.289Z,993.13
2018-05-06T04:09:19.486Z,993.12
2018-05-06T04:10:19.694Z,993.14
2018-05-06T04:11:19.892Z,993.12
2018-05-06T04:12:20.095Z,993.17
2018-05-06T04:13:20.300Z,993.12
2018-05-06T04:14:20.506Z,993.12
2018-05-06T04:15:20.691Z,993.14
2018-05-06T04:16:20.891Z,993.05
2018-05-06T04:17:21.062Z,993.16
2018-05-06T04:18:21.264Z,993.15
2018-05-06T04:20:53.349Z,993.22
2018-05-06T04:21:53.518Z,993.21
2018-05-06T04:22:53.703Z,993.21
2018-05-06T04:23:53.889Z,993.20
2018-05-06T04:24:54.092Z,993.20
2018-05-06T04:25:54.294Z,993.24
2018-05-06T04:26:54.528Z,993.25
2018-05-06T04:27:54.679Z,993.34
2018-05-06T04:28:54.868Z,993.35
2018-05-06T04:29:55.078Z,993.36
2018-05-06T04:30:55.290Z,993.43
2018-05-06T04:31:55.465Z,993.58
2018-05-06T04:32:55.649Z,993.86
2018-05-06T04:33:55.843Z,993.84
2018-05-06T04:34:56.046Z,993.71
2018-05-06T04:35:56.235Z,993.84
2018-05-06T04:36:56.464Z,994.07
2018-05-06T04:37:56.671Z,994.16
2018-05-06T04:38:56.868Z,994.16
2018-05-06T04:39:57.052Z,994.15
2018-05-06T04:40:57.233Z,994.18
2018-05-06T04:41:57.437Z,994.19
2018-05-06T04:42:57.620Z,994.22
2018-05-06T04:43:57.813Z,994.20
2018-05-06T04:44:57.996Z,994.26
2018-05-06T04:45:58.189Z,994.27
2018-05-06T04:46:58.373Z,994.31
2018-05-06T04:47:58.577Z,994.29
2018-05-06T04:48:58.786Z,994.37
2018-05-06T04:49:58.966Z,994.38
2018-05-06T04:50:59.176Z,994.41
2018-05-06T04:51:59.355Z,994.49
2018-05-06T04:52:59.562Z,994.44
2018-05-06T04:53:59.784Z,994.41
2018-05-06T04:54:59.965Z,994.43
2018-05-06T04:56:00.244Z,994.48
2018-05-06T04:57:00.369Z,994.56
2018-05-06T04:58:00.564Z,994.56
2018-05-06T04:59:00.779Z,994.57
2018-05-06T05:00:00.981Z,994.61
2018-05-06T05:01:01.175Z,994.58
2018-05-06T05:02:01.383Z,994.67
2018-05-06T05:03:01.586Z,994.79
2018-05-06T05:04:01.786Z,994.74
2018-05-06T05:05:01.987Z,994.76
2018-05-06T05:06:02.324Z,994.83
2018-05-06T05:07:02.396Z,994.82
2018-05-06T05:08:02.572Z,994.89
2018-05-06T05:09:02.763Z,994.83
2018-05-06T05:10:02.974Z,994.73
2018-05-06T05:11:03.165Z,994.66
2018-05-06T05:12:03.377Z,994.67
2018-05-06T05:13:03.570Z,994.65
2018-05-06T05:14:03.766Z,994.66
2018-05-06T05:15:03.953Z,994.72
2018-05-06T05:16:04.169Z,994.82
2018-05-06T05:17:04.389Z,994.88
2018-05-06T05:18:04.593Z,994.89
2018-05-06T05:19:04.787Z,994.98
2018-05-06T05:21:36.916Z,995.22
2018-05-06T05:22:37.097Z,995.66
2018-05-06T05:23:37.301Z,996.89
2018-05-06T05:24:37.513Z,997.48
2018-05-06T05:25:37.713Z,997.48
2018-05-06T05:26:37.919Z,997.51
2018-05-06T05:27:38.131Z,997.58
2018-05-06T05:28:38.337Z,997.51
2018-05-06T05:29:38.531Z,997.65
2018-05-06T05:30:38.736Z,997.78
2018-05-06T05:31:38.944Z,998.02
2018-05-06T05:32:39.157Z,997.91
2018-05-06T05:33:39.344Z,997.89
2018-05-06T05:34:39.549Z,997.97
2018-05-06T05:35:39.747Z,998.05
2018-05-06T05:36:39.946Z,998.12
2018-05-06T05:37:40.143Z,998.15
2018-05-06T05:38:40.347Z,998.09
2018-05-06T05:39:40.560Z,998.32
2018-05-06T05:40:40.783Z,998.47
2018-05-06T05:41:40.980Z,998.54
2018-05-06T05:42:41.199Z,998.47
2018-05-06T05:43:41.409Z,998.35
2018-05-06T05:44:41.616Z,998.23
2018-05-06T05:45:41.821Z,998.06
2018-05-06T05:46:42.026Z,998.03
2018-05-06T05:47:42.264Z,997.82
2018-05-06T05:48:42.519Z,997.72
2018-05-06T05:49:42.596Z,997.59
2018-05-06T05:50:42.794Z,997.63
2018-05-06T05:51:43.002Z,997.48
2018-05-06T05:52:43.205Z,997.43
2018-05-06T05:53:43.419Z,997.39
2018-05-06T05:54:43.623Z,997.16
2018-05-06T05:55:43.812Z,997.17
2018-05-06T05:56:44.028Z,997.24
2018-05-06T05:57:44.237Z,997.13
2018-05-06T05:58:44.445Z,997.07
2018-05-06T05:59:44.641Z,997.01
2018-05-06T06:00:44.861Z,996.88
2018-05-06T06:01:45.076Z,996.74
2018-05-06T06:02:45.284Z,996.67
2018-05-06T06:03:45.486Z,996.65
2018-05-06T06:04:45.697Z,996.53
2018-05-06T06:05:45.887Z,996.39
2018-05-06T06:06:46.096Z,996.33
2018-05-06T06:07:46.294Z,996.22
2018-05-06T06:08:46.492Z,996.13
2018-05-06T06:09:46.805Z,996.04
2018-05-06T06:10:46.953Z,995.95
2018-05-06T06:11:47.152Z,995.94
2018-05-06T06:12:47.346Z,995.89
2018-05-06T06:13:47.561Z,995.80
2018-05-06T06:14:47.762Z,995.75
2018-05-06T06:15:47.986Z,995.70
2018-05-06T06:16:48.192Z,995.70
2018-05-06T06:17:48.403Z,995.67
2018-05-06T06:18:48.589Z,995.64
2018-05-06T06:19:48.800Z,995.60
2018-05-06T06:20:48.996Z,995.55
2018-05-06T06:21:49.197Z,995.53
2018-05-06T06:22:49.392Z,995.56
2018-05-06T06:23:49.590Z,995.50
2018-05-06T06:24:49.803Z,995.53
2018-05-06T06:25:50.032Z,995.46
2018-05-06T06:26:50.245Z,995.48
2018-05-06T06:27:50.437Z,995.42
2018-05-06T06:28:50.660Z,995.37
2018-05-06T06:29:50.856Z,995.37
2018-05-06T06:30:51.071Z,995.41
2018-05-06T06:31:51.281Z,995.38
2018-05-06T06:32:51.549Z,995.38
2018-05-06T06:33:51.712Z,995.43
2018-05-06T06:34:51.919Z,995.44
2018-05-06T06:35:52.128Z,995.47
2018-05-06T06:36:52.332Z,995.42
2018-05-06T06:37:52.545Z,995.45
2018-05-06T06:38:52.769Z,995.45
2018-05-06T06:39:52.970Z,995.46
2018-05-06T06:40:53.169Z,995.48
2018-05-06T06:41:53.402Z,995.44
2018-05-06T06:42:53.625Z,995.51
2018-05-06T06:43:53.837Z,995.46
2018-05-06T06:44:54.035Z,995.48
2018-05-06T06:45:54.259Z,995.43
2018-05-06T06:46:54.475Z,995.46
2018-05-06T06:47:54.755Z,995.46
2018-05-06T06:48:54.910Z,995.47
2018-05-06T06:49:55.112Z,995.44
2018-05-06T06:50:55.314Z,995.47
2018-05-06T06:51:55.531Z,995.48
2018-05-06T06:52:55.750Z,995.48
2018-05-06T06:53:55.949Z,995.48
2018-05-06T06:54:56.157Z,995.46
2018-05-06T06:55:56.384Z,995.48
2018-05-06T06:56:56.592Z,995.45
2018-05-06T06:57:56.812Z,995.46
2018-05-06T06:58:57.022Z,995.43
2018-05-06T06:59:57.263Z,995.44
2018-05-06T07:00:57.448Z,995.40
2018-05-06T07:01:57.649Z,995.37
2018-05-06T07:02:57.871Z,995.38
2018-05-06T07:03:58.062Z,995.38
2018-05-06T07:04:58.271Z,995.41
2018-05-06T07:05:58.529Z,995.42
2018-05-06T07:06:58.712Z,995.42
2018-05-06T07:07:58.931Z,995.41
2018-05-06T07:08:59.145Z,995.42
2018-05-06T07:09:59.342Z,995.44
2018-05-06T07:10:59.555Z,995.45
2018-05-06T07:11:59.753Z,995.39
2018-05-06T07:12:59.973Z,995.42
2018-05-06T07:14:00.169Z,995.43
2018-05-06T07:15:00.413Z,995.46
2018-05-06T07:16:00.635Z,995.45
2018-05-06T07:17:00.836Z,995.45
2018-05-06T07:18:01.041Z,995.39
2018-05-06T07:19:01.253Z,995.41
2018-05-06T07:20:01.500Z,995.42
2018-05-06T07:21:01.782Z,995.41
2018-05-06T07:22:01.874Z,995.37
2018-05-06T07:23:02.086Z,995.36
2018-05-06T07:24:02.283Z,995.39
2018-05-06T07:25:02.507Z,995.33
2018-05-06T07:26:02.795Z,995.30
2018-05-06T07:27:02.896Z,995.31
2018-05-06T07:28:03.104Z,995.40
2018-05-06T07:29:03.322Z,995.39
2018-05-06T07:30:03.529Z,995.37
2018-05-06T07:31:03.727Z,995.41
2018-05-06T07:32:03.953Z,995.41
2018-05-06T07:33:04.158Z,995.34
2018-05-06T07:34:04.370Z,995.29
2018-05-06T07:35:04.584Z,995.32
2018-05-06T07:36:04.807Z,995.32
2018-05-06T07:37:05.222Z,995.32
2018-05-06T07:38:05.187Z,995.31
2018-05-06T07:39:05.388Z,995.31
2018-05-06T07:40:05.614Z,995.33
2018-05-06T07:41:05.836Z,995.32
2018-05-06T07:42:06.044Z,995.34
2018-05-06T07:43:06.260Z,995.29
2018-05-06T07:44:06.468Z,995.34
2018-05-06T07:45:06.674Z,995.31
2018-05-06T07:46:06.883Z,995.32
2018-05-06T07:47:07.088Z,995.33
2018-05-06T07:48:07.317Z,995.35
2018-05-06T07:49:07.575Z,995.37
2018-05-06T07:50:07.754Z,995.31
2018-05-06T07:51:07.979Z,995.28
2018-05-06T07:52:08.189Z,995.33
2018-05-06T07:53:08.415Z,995.32
2018-05-06T07:54:08.616Z,995.27
2018-05-06T07:55:08.814Z,995.28
2018-05-06T07:56:09.037Z,995.29
2018-05-06T07:57:09.261Z,995.31
2018-05-06T07:58:09.469Z,995.27
2018-05-06T07:59:09.695Z,995.28
2018-05-06T08:00:09.893Z,995.34
2018-05-06T08:01:10.111Z,995.35
2018-05-06T08:02:10.321Z,995.42
2018-05-06T08:03:10.565Z,995.36
2018-05-06T08:04:10.764Z,995.37
2018-05-06T08:05:10.961Z,995.41
2018-05-06T08:06:11.178Z,995.49
2018-05-06T08:07:11.392Z,995.42
2018-05-06T08:09:43.259Z,995.50
2018-05-06T08:10:43.443Z,995.49
2018-05-06T08:11:43.676Z,995.50
2018-05-06T08:12:43.883Z,995.49
2018-05-06T08:13:44.086Z,995.48
2018-05-06T08:14:44.296Z,995.44
2018-05-06T08:15:44.520Z,995.43
2018-05-06T08:16:44.752Z,995.44
2018-05-06T08:17:44.951Z,995.45
2018-05-06T08:20:18.822Z,995.43
2018-05-06T08:21:17.266Z,995.40
2018-05-06T08:22:17.472Z,995.39
2018-05-06T08:23:17.693Z,995.47
2018-05-06T08:24:17.915Z,995.41
2018-05-06T08:25:18.130Z,995.38
2018-05-06T08:26:18.339Z,995.40
2018-05-06T08:27:18.566Z,995.33
2018-05-06T08:28:18.779Z,995.32
2018-05-06T08:29:18.991Z,995.27
2018-05-06T08:30:19.213Z,995.26
2018-05-06T08:31:19.440Z,995.31
2018-05-06T08:32:19.643Z,995.29
2018-05-06T08:33:19.853Z,995.30
2018-05-06T08:34:20.096Z,995.26
2018-05-06T08:35:20.295Z,995.23
2018-05-06T08:36:20.501Z,995.22
2018-05-06T08:38:53.882Z,995.22
2018-05-06T08:39:52.645Z,995.19
2018-05-06T08:40:52.721Z,995.18
2018-05-06T08:41:52.943Z,995.20
2018-05-06T08:42:53.154Z,995.13
2018-05-06T08:43:53.359Z,995.09
2018-05-06T08:44:53.561Z,995.10
2018-05-06T08:45:53.788Z,995.08
2018-05-06T08:46:53.972Z,995.11
2018-05-06T08:47:54.187Z,995.06
2018-05-06T08:48:54.382Z,995.03
2018-05-06T08:49:54.611Z,995.04
2018-05-06T08:50:54.860Z,995.04
2018-05-06T08:51:55.079Z,995.10
2018-05-06T08:52:55.275Z,995.02
2018-05-06T08:53:55.474Z,994.99
2018-05-06T08:54:55.683Z,995.02
2018-05-06T08:57:28.093Z,994.98
2018-05-06T08:58:28.034Z,995.01
2018-05-06T08:59:28.254Z,995.04
2018-05-06T09:00:28.486Z,995.01
2018-05-06T09:01:28.705Z,995.11
2018-05-06T09:02:28.931Z,995.06
2018-05-06T09:03:29.151Z,995.08
2018-05-06T09:04:29.353Z,995.05
2018-05-06T09:05:29.572Z,995.02
2018-05-06T09:06:29.797Z,995.02
2018-05-06T09:07:30.022Z,995.02
2018-05-06T09:08:30.277Z,995.01
2018-05-06T09:09:30.472Z,995.05
2018-05-06T09:10:30.690Z,995.04
2018-05-06T09:13:02.855Z,995.10
2018-05-06T09:14:03.009Z,995.12
2018-05-06T09:15:03.216Z,995.02
2018-05-06T09:16:03.417Z,994.86
2018-05-06T09:17:03.610Z,994.80
2018-05-06T09:18:03.832Z,994.65
2018-05-06T09:19:04.058Z,994.56
2018-05-06T09:20:04.271Z,994.56
2018-05-06T09:21:04.483Z,994.57
2018-05-06T09:22:04.711Z,994.57
2018-05-06T09:23:04.916Z,994.60
2018-05-06T09:24:05.131Z,994.56
2018-05-06T09:25:05.345Z,994.60
2018-05-06T09:26:05.568Z,994.53
2018-05-06T09:27:05.775Z,994.65
2018-05-06T09:28:06.008Z,994.50
2018-05-06T09:29:06.244Z,994.50
2018-05-06T09:30:06.492Z,994.59
2018-05-06T09:31:06.713Z,994.54
2018-05-06T09:32:06.935Z,994.63
2018-05-06T09:33:07.163Z,994.59
2018-05-06T09:34:07.404Z,994.56
2018-05-06T09:35:07.604Z,994.57
2018-05-06T09:36:07.803Z,994.50
2018-05-06T09:37:08.026Z,994.56
2018-05-06T09:38:08.281Z,994.51
2018-05-06T09:39:08.380Z,994.60
2018-05-06T09:40:08.590Z,994.49
2018-05-06T09:41:08.813Z,994.51
2018-05-06T09:42:09.037Z,994.54
2018-05-06T09:43:09.251Z,994.50
2018-05-06T09:44:09.453Z,994.53
2018-05-06T09:45:09.667Z,994.54
2018-05-06T09:46:09.891Z,994.54
2018-05-06T09:47:31.180Z,994.54
2018-05-06T09:48:10.307Z,994.47
2018-05-06T09:49:10.515Z,994.48
2018-05-06T09:50:10.717Z,994.51
2018-05-06T09:51:10.935Z,994.53
2018-05-06T09:52:11.135Z,994.50
2018-05-06T09:53:11.329Z,994.50
2018-05-06T09:54:11.540Z,994.41
2018-05-06T09:56:43.958Z,994.57
2018-05-06T09:57:43.896Z,994.49
2018-05-06T09:58:44.095Z,994.49
2018-05-06T09:59:44.328Z,994.43
2018-05-06T10:00:44.544Z,994.48
2018-05-06T10:01:44.743Z,994.44
2018-05-06T10:02:44.981Z,994.45
2018-05-06T10:03:45.215Z,994.44
2018-05-06T10:04:45.410Z,994.38
2018-05-06T10:05:45.603Z,994.41
2018-05-06T10:06:45.826Z,994.37
2018-05-06T10:07:46.027Z,994.37
2018-05-06T10:08:46.234Z,994.33
2018-05-06T10:09:46.432Z,994.33
2018-05-06T10:10:46.659Z,994.35
2018-05-06T10:11:46.869Z,994.29
2018-05-06T10:12:47.089Z,994.41
2018-05-06T10:13:47.308Z,994.35
2018-05-06T10:14:47.522Z,994.36
2018-05-06T10:15:47.769Z,994.31
2018-05-06T10:16:47.975Z,994.33
2018-05-06T10:17:48.198Z,994.37
2018-05-06T10:18:48.425Z,994.36
2018-05-06T10:19:48.653Z,994.32
2018-05-06T10:20:48.867Z,994.32
2018-05-06T10:21:49.090Z,994.35
2018-05-06T10:22:49.290Z,994.33
2018-05-06T10:23:49.484Z,994.28
2018-05-06T10:24:49.682Z,994.19
2018-05-06T10:25:49.905Z,994.27
2018-05-06T10:26:50.116Z,994.23
2018-05-06T10:27:50.340Z,994.20
2018-05-06T10:28:50.562Z,994.25
2018-05-06T10:29:50.775Z,994.19
2018-05-06T10:30:50.990Z,994.10
2018-05-06T10:33:24.867Z,994.07
2018-05-06T10:34:23.415Z,994.05
2018-05-06T10:35:23.627Z,994.12
2018-05-06T10:36:23.828Z,993.99
2018-05-06T10:37:24.080Z,994.06
2018-05-06T10:38:24.380Z,993.97
2018-05-06T10:39:24.506Z,993.92
2018-05-06T10:41:57.441Z,993.91
2018-05-06T10:42:56.750Z,993.92
2018-05-06T10:43:57.011Z,993.94
2018-05-06T10:44:57.178Z,993.95
2018-05-06T10:45:57.399Z,993.97
2018-05-06T10:46:57.638Z,993.91
2018-05-06T10:47:57.798Z,993.86
2018-05-06T10:48:58.069Z,993.86
2018-05-06T10:49:58.211Z,993.83
2018-05-06T10:50:58.422Z,993.89
2018-05-06T10:51:58.639Z,993.82
2018-05-06T10:52:58.833Z,993.91
2018-05-06T10:53:59.051Z,993.77
2018-05-06T10:54:59.273Z,993.78
2018-05-06T10:55:59.472Z,993.69
2018-05-06T10:56:59.672Z,993.69
2018-05-06T10:57:59.913Z,993.61
2018-05-06T10:59:00.117Z,993.63
2018-05-06T11:00:00.324Z,993.54
2018-05-06T11:01:00.532Z,993.45
2018-05-06T11:02:00.727Z,993.41
2018-05-06T11:03:00.944Z,993.49
2018-05-06T11:04:01.207Z,993.42
2018-05-06T11:05:01.355Z,993.40
2018-05-06T11:06:01.575Z,993.40
2018-05-06T11:07:01.821Z,993.33
2018-05-06T11:08:02.008Z,993.25
2018-05-06T11:09:02.227Z,993.28
2018-05-06T11:10:02.437Z,993.29
2018-05-06T11:11:02.645Z,993.23
2018-05-06T11:12:02.854Z,993.20
2018-05-06T11:13:03.052Z,993.21
2018-05-06T11:14:03.244Z,993.22
2018-05-06T11:15:03.472Z,993.15
2018-05-06T11:16:03.667Z,993.21
2018-05-06T11:17:03.863Z,993.17
2018-05-06T11:18:04.077Z,993.23
2018-05-06T11:19:04.284Z,993.19
2018-05-06T11:20:04.499Z,993.15
2018-05-06T11:21:04.702Z,993.12
2018-05-06T11:22:04.914Z,993.09
2018-05-06T11:23:05.116Z,993.13
2018-05-06T11:24:05.319Z,993.04
2018-05-06T11:25:05.522Z,993.04
2018-05-06T11:26:05.714Z,993.05
2018-05-06T11:27:05.938Z,992.96
2018-05-06T11:29:37.788Z,993.03
2018-05-06T11:30:37.964Z,993.04
2018-05-06T11:31:38.154Z,992.99
2018-05-06T11:32:38.445Z,992.92
2018-05-06T11:33:38.556Z,992.92
2018-05-06T11:34:38.717Z,992.93
2018-05-06T11:35:38.904Z,992.86
2018-05-06T11:36:39.102Z,992.97
2018-05-06T11:37:39.310Z,992.98
2018-05-06T11:38:39.510Z,992.92
2018-05-06T11:39:39.731Z,992.91
2018-05-06T11:40:39.931Z,992.93
2018-05-06T11:41:40.131Z,992.93
2018-05-06T11:42:40.334Z,992.96
2018-05-06T11:43:40.700Z,992.94
2018-05-06T11:44:40.782Z,992.93
2018-05-06T11:45:40.980Z,992.96
2018-05-06T11:46:41.192Z,992.88
2018-05-06T11:47:41.394Z,992.93
2018-05-06T11:48:41.589Z,992.91
2018-05-06T11:49:41.805Z,992.91
2018-05-06T11:50:42.012Z,992.90
2018-05-06T11:51:42.215Z,992.91
2018-05-06T11:52:42.405Z,992.86
2018-05-06T11:53:42.610Z,992.81
2018-05-06T11:54:42.869Z,992.90
2018-05-06T11:55:43.076Z,992.93
2018-05-06T11:56:43.284Z,992.90
2018-05-06T11:57:43.488Z,992.85
2018-05-06T11:58:43.713Z,992.84
2018-05-06T11:59:43.925Z,992.86
2018-05-06T12:00:44.118Z,992.82
2018-05-06T12:01:44.338Z,992.78
2018-05-06T12:02:44.529Z,992.88
2018-05-06T12:03:44.742Z,992.85
2018-05-06T12:04:44.930Z,992.83
2018-05-06T12:07:20.293Z,992.85
2018-05-06T12:08:17.223Z,992.91
2018-05-06T12:09:17.426Z,992.71
2018-05-06T12:10:17.644Z,992.76
2018-05-06T12:11:17.852Z,992.83
2018-05-06T12:12:18.156Z,992.83
2018-05-06T12:13:18.254Z,992.77
2018-05-06T12:14:18.458Z,992.80
2018-05-06T12:15:18.666Z,992.72
2018-05-06T12:16:18.900Z,992.71
2018-05-06T12:17:19.095Z,992.73
2018-05-06T12:18:19.314Z,992.78
2018-05-06T12:19:19.506Z,992.65
2018-05-06T12:20:19.713Z,992.67
2018-05-06T12:21:19.924Z,992.75
2018-05-06T12:22:20.131Z,992.70
2018-05-06T12:23:20.393Z,992.67
2018-05-06T12:24:20.477Z,992.60
2018-05-06T12:25:20.676Z,992.59
2018-05-06T12:26:20.882Z,992.56
2018-05-06T12:27:21.084Z,992.60
2018-05-06T12:28:21.287Z,992.64
2018-05-06T12:29:21.502Z,992.60
2018-05-06T12:30:21.718Z,992.62
2018-05-06T12:31:21.935Z,992.62
2018-05-06T12:32:22.141Z,992.65
2018-05-06T12:33:22.363Z,992.61
2018-05-06T12:34:22.593Z,992.65
2018-05-06T12:35:22.820Z,992.60
2018-05-06T12:36:23.019Z,992.63
2018-05-06T12:37:23.225Z,992.61
2018-05-06T12:38:23.425Z,992.60
2018-05-06T12:39:23.614Z,992.61
2018-05-06T12:40:23.825Z,992.56
2018-05-06T12:41:24.024Z,992.59
2018-05-06T12:42:24.253Z,992.51
2018-05-06T12:43:24.486Z,992.60
2018-05-06T12:44:24.629Z,992.50
2018-05-06T12:45:24.834Z,992.58
2018-05-06T12:46:25.050Z,992.51
2018-05-06T12:47:25.275Z,992.55
2018-05-06T12:48:25.509Z,992.53
2018-05-06T12:49:25.770Z,992.60
2018-05-06T12:50:25.943Z,992.56
2018-05-06T12:51:26.096Z,992.57
2018-05-06T12:52:26.311Z,992.50
2018-05-06T12:53:26.532Z,992.42
2018-05-06T12:54:26.744Z,992.48
2018-05-06T12:56:58.865Z,992.53
2018-05-06T12:58:00.601Z,992.47
2018-05-06T12:58:59.295Z,992.43
2018-05-06T12:59:59.501Z,992.42
2018-05-06T13:00:59.703Z,992.42
2018-05-06T13:01:59.921Z,992.39
2018-05-06T13:03:00.130Z,992.40
2018-05-06T13:04:00.335Z,992.39
2018-05-06T13:05:00.548Z,992.32